createdAt,value
2023-03-04T00:00:25.811Z,98131.72
2023-03-04T00:02:55.077Z,98121.44
2023-03-04T00:05:24.234Z,98124.91
2023-03-04T00:07:54.335Z,98122.41
2023-03-04T00:13:05.366Z,98111.38
2023-03-04T00:15:34.396Z,98099.47
2023-03-04T00:18:08.596Z,98082.53
2023-03-04T00:20:37.868Z,98100.34
2023-03-04T00:23:07.370Z,98093.59
2023-03-04T00:25:38.611Z,98090.16
2023-03-04T00:28:07.781Z,98098.56
2023-03-04T00:30:36.890Z,98095.13
2023-03-04T00:33:06.145Z,98089.13
2023-03-04T00:35:35.517Z,98075.56
2023-03-04T00:38:04.875Z,98078.91
2023-03-04T00:40:34.216Z,98080.69
2023-03-04T00:43:05.728Z,98082.47
2023-03-04T00:45:41.278Z,98068.09
2023-03-04T00:48:11.037Z,98023.09
2023-03-04T00:50:40.484Z,98063.13
2023-03-04T00:53:14.702Z,98058.91
2023-03-04T00:55:44.819Z,98041.09
2023-03-04T00:58:16.876Z,98055.56
2023-03-04T01:00:46.439Z,98055.56
2023-03-04T01:03:15.548Z,98055.59
2023-03-04T01:05:45.203Z,98046.25
2023-03-04T01:08:14.291Z,98045.41
2023-03-04T01:10:43.646Z,98032.63
2023-03-04T01:13:12.868Z,98046.25
2023-03-04T01:15:44.289Z,98036.88
2023-03-04T01:18:14.403Z,98052.13
2023-03-04T01:20:43.931Z,98045.38
2023-03-04T01:23:13.084Z,98040.22
2023-03-04T01:25:43.879Z,98017.16
2023-03-04T01:28:18.429Z,98034.94
2023-03-04T01:30:49.986Z,98050.22
2023-03-04T01:33:19.269Z,98038.22
2023-03-04T01:35:48.737Z,98028.16
2023-03-04T01:38:18.286Z,98054.53
2023-03-04T01:41:07.035Z,98047.81
2023-03-04T01:43:38.431Z,98041.09
2023-03-04T01:46:09.783Z,98040.28
2023-03-04T01:48:40.753Z,98042.72
2023-03-04T01:51:16.001Z,98041.91
2023-03-04T01:53:45.899Z,98017.31
2023-03-04T01:56:20.796Z,98040.28
2023-03-04T01:59:12.259Z,98036.09
2023-03-04T02:01:45.247Z,98032.72
2023-03-04T02:06:52.447Z,98024.22
2023-03-04T02:09:26.937Z,98029.28
2023-03-04T02:11:57.387Z,97985.16
2023-03-04T02:14:26.934Z,97994.47
2023-03-04T02:17:03.601Z,98003.03
2023-03-04T02:19:44.055Z,98000.56
2023-03-04T02:22:18.305Z,97998.94
2023-03-04T02:24:52.890Z,97993.84
2023-03-04T02:27:25.146Z,97992.09
2023-03-04T02:32:30.119Z,97985.19
2023-03-04T02:34:59.407Z,97973.38
2023-03-04T02:37:35.171Z,97986.06
2023-03-04T02:40:04.523Z,97977.56
2023-03-04T02:42:35.790Z,97969.97
2023-03-04T02:45:05.216Z,97970.81
2023-03-04T02:47:34.332Z,97958.91
2023-03-04T02:50:03.938Z,97957.16
2023-03-04T02:52:33.154Z,97963.06
2023-03-04T02:55:02.437Z,97962.16
2023-03-04T02:57:39.988Z,97955.38
2023-03-04T03:00:11.294Z,97950.16
2023-03-04T03:02:47.575Z,97935.69
2023-03-04T03:05:17.084Z,97890.69
2023-03-04T03:10:27.677Z,97927.34
2023-03-04T03:12:59.585Z,97925.66
2023-03-04T03:15:40.350Z,97912.94
2023-03-04T03:18:09.920Z,97914.63
2023-03-04T03:20:39.221Z,97917.25
2023-03-04T03:23:13.624Z,97917.25
2023-03-04T03:25:42.896Z,97922.34
2023-03-04T03:28:14.404Z,97908.81
2023-03-04T03:30:43.888Z,97912.16
2023-03-04T03:33:12.994Z,97907.94
2023-03-04T03:35:47.839Z,97909.63
2023-03-04T03:38:17.463Z,97908.84
2023-03-04T03:40:47.059Z,97904.63
2023-03-04T03:43:18.167Z,97909.75
2023-03-04T03:45:47.467Z,97901.28
2023-03-04T03:48:16.585Z,97903.00
2023-03-04T03:50:50.937Z,97897.94
2023-03-04T03:53:20.106Z,97899.63
2023-03-04T03:56:00.746Z,97886.19
2023-03-04T03:58:32.017Z,97887.88
2023-03-04T04:01:06.251Z,97870.91
2023-03-04T04:03:35.499Z,97883.69
2023-03-04T04:06:04.888Z,97875.28
2023-03-04T04:08:39.573Z,97871.88
2023-03-04T04:11:11.305Z,97872.75
2023-03-04T04:13:42.500Z,97860.06
2023-03-04T04:16:12.394Z,97858.34
2023-03-04T04:18:42.198Z,97848.22
2023-03-04T04:21:11.698Z,97810.03
2023-03-04T04:23:41.344Z,97860.06
2023-03-04T04:26:17.152Z,97824.47
2023-03-04T04:28:48.154Z,97847.44
2023-03-04T04:31:17.328Z,97845.78
2023-03-04T04:33:46.419Z,97845.75
2023-03-04T04:36:17.174Z,97848.31
2023-03-04T04:38:49.141Z,97850.00
2023-03-04T04:41:20.558Z,97846.66
2023-03-04T04:43:52.106Z,97844.97
2023-03-04T04:46:21.744Z,97843.25
2023-03-04T04:48:51.289Z,97824.56
2023-03-04T04:51:20.878Z,97841.50
2023-03-04T04:53:50.806Z,97837.25
2023-03-04T04:56:22.620Z,97842.38
2023-03-04T04:58:54.438Z,97817.81
2023-03-04T05:01:23.275Z,97846.72
2023-03-04T05:03:52.840Z,97844.13
2023-03-04T05:06:22.500Z,97848.38
2023-03-04T05:08:57.005Z,97843.31
2023-03-04T05:11:26.155Z,97845.03
2023-03-04T05:13:57.933Z,97842.47
2023-03-04T05:16:27.005Z,97830.63
2023-03-04T05:18:56.136Z,97838.25
2023-03-04T05:21:30.457Z,97844.19
2023-03-04T05:23:59.706Z,97834.03
2023-03-04T05:26:33.967Z,97829.78
2023-03-04T05:29:05.484Z,97836.59
2023-03-04T05:31:41.047Z,97825.66
2023-03-04T05:34:10.134Z,97832.50
2023-03-04T05:36:39.436Z,97819.81
2023-03-04T05:39:13.623Z,97821.50
2023-03-04T05:41:42.829Z,97805.41
2023-03-04T05:46:49.211Z,97765.59
2023-03-04T05:49:18.405Z,97809.63
2023-03-04T05:51:47.679Z,97799.47
2023-03-04T05:54:17.064Z,97805.38
2023-03-04T05:56:46.218Z,97807.06
2023-03-04T05:59:25.509Z,97803.66
2023-03-04T06:01:55.568Z,97790.91
2023-03-04T06:04:29.323Z,97795.03
2023-03-04T06:06:59.996Z,97790.81
2023-03-04T06:09:42.499Z,97784.78
2023-03-04T06:12:14.602Z,97783.84
2023-03-04T06:14:45.741Z,97780.50
2023-03-04T06:17:14.894Z,97793.25
2023-03-04T06:19:43.968Z,97797.41
2023-03-04T06:22:13.483Z,97791.25
2023-03-04T06:24:42.724Z,97775.84
2023-03-04T06:27:17.766Z,97786.00
2023-03-04T06:29:48.794Z,97787.84
2023-03-04T06:32:23.158Z,97783.69
2023-03-04T06:34:52.476Z,97779.47
2023-03-04T06:37:21.790Z,97777.91
2023-03-04T06:39:51.186Z,97770.97
2023-03-04T06:42:20.455Z,97773.16
2023-03-04T06:44:52.784Z,97766.13
2023-03-04T06:47:25.685Z,97767.03
2023-03-04T06:49:55.116Z,97753.44
2023-03-04T06:52:24.623Z,97761.81
2023-03-04T06:55:02.816Z,97746.47
2023-03-04T06:57:32.518Z,97749.53
2023-03-04T07:00:04.082Z,97741.47
2023-03-04T07:02:34.979Z,97743.75
2023-03-04T07:05:04.380Z,97741.94
2023-03-04T07:07:33.455Z,97737.66
2023-03-04T07:10:02.659Z,97741.06
2023-03-04T07:12:32.501Z,97721.63
2023-03-04T07:15:03.500Z,97734.28
2023-03-04T07:17:39.482Z,97733.34
2023-03-04T07:20:09.557Z,97676.31
2023-03-04T07:22:38.846Z,97717.25
2023-03-04T07:25:13.656Z,97717.38
2023-03-04T07:27:42.809Z,97709.16
2023-03-04T07:30:15.265Z,97696.50
2023-03-04T07:32:44.503Z,97705.94
2023-03-04T07:35:13.751Z,97655.47
2023-03-04T07:37:43.068Z,97701.78
2023-03-04T07:40:14.177Z,97698.16
2023-03-04T07:42:43.980Z,97695.38
2023-03-04T07:45:19.580Z,97694.56
2023-03-04T07:50:24.237Z,97685.94
2023-03-04T07:52:53.252Z,97690.66
2023-03-04T07:55:32.656Z,97678.06
2023-03-04T07:58:06.793Z,97665.31
2023-03-04T08:00:37.905Z,97672.00
2023-03-04T08:03:07.102Z,97676.09
2023-03-04T08:05:36.295Z,97647.03
2023-03-04T08:08:10.949Z,97667.84
2023-03-04T08:10:40.537Z,97656.59
2023-03-04T08:13:10.001Z,97656.59
2023-03-04T08:15:45.333Z,97678.69
2023-03-04T08:18:14.651Z,97653.50
2023-03-04T08:20:44.895Z,97651.09
2023-03-04T08:23:14.224Z,97656.41
2023-03-04T08:25:44.160Z,97652.53
2023-03-04T08:28:20.155Z,97648.69
2023-03-04T08:30:56.868Z,97651.59
2023-03-04T08:33:26.446Z,97646.47
2023-03-04T08:35:55.668Z,97641.09
2023-03-04T08:38:25.006Z,97639.16
2023-03-04T08:40:55.256Z,97620.78
2023-03-04T08:43:25.473Z,97608.59
2023-03-04T08:45:57.238Z,97631.94
2023-03-04T08:48:26.490Z,97631.44
2023-03-04T08:50:56.159Z,97626.06
2023-03-04T08:53:25.649Z,97602.63
2023-03-04T08:55:54.963Z,97623.25
2023-03-04T08:58:29.509Z,97615.31
2023-03-04T09:01:01.394Z,97612.69
2023-03-04T09:03:30.861Z,97591.06
2023-03-04T09:06:00.213Z,97602.28
2023-03-04T09:08:29.492Z,97609.47
2023-03-04T09:10:58.958Z,97596.69
2023-03-04T09:13:30.484Z,97591.22
2023-03-04T09:16:11.541Z,97590.47
2023-03-04T09:18:41.560Z,97579.44
2023-03-04T09:21:11.270Z,97572.44
2023-03-04T09:23:41.757Z,97568.81
2023-03-04T09:26:23.914Z,97574.19
2023-03-04T09:28:54.061Z,97557.22
2023-03-04T09:31:30.765Z,97562.84
2023-03-04T09:34:01.182Z,97560.03
2023-03-04T09:36:31.006Z,97545.78
2023-03-04T09:39:02.379Z,97515.19
2023-03-04T09:41:39.130Z,97516.03
2023-03-04T09:44:17.008Z,97534.00
2023-03-04T09:46:50.377Z,97510.25
2023-03-04T09:49:23.179Z,97519.66
2023-03-04T09:51:58.917Z,97513.50
2023-03-04T09:54:48.284Z,97513.41
2023-03-04T09:57:28.156Z,97505.63
2023-03-04T10:00:07.802Z,97510.13
2023-03-04T10:02:52.157Z,97502.59
2023-03-04T10:05:23.588Z,97501.13
2023-03-04T10:07:59.962Z,97495.78
2023-03-04T10:10:35.340Z,97494.03
2023-03-04T10:13:07.012Z,97489.91
2023-03-04T10:15:40.998Z,97482.19
2023-03-04T10:18:20.727Z,97480.75
2023-03-04T10:20:56.580Z,97474.38
2023-03-04T10:23:33.567Z,97474.53
2023-03-04T10:26:12.393Z,97456.97
2023-03-04T10:28:46.644Z,97452.72
2023-03-04T10:31:22.501Z,97441.38
2023-03-04T10:34:00.224Z,97448.44
2023-03-04T10:36:40.837Z,97432.66
2023-03-04T10:39:13.296Z,97427.88
2023-03-04T10:41:45.954Z,97424.34
2023-03-04T10:44:18.937Z,97419.16
2023-03-04T10:46:56.728Z,97424.94
2023-03-04T10:49:29.640Z,97414.31
2023-03-04T10:52:04.370Z,97410.78
2023-03-04T10:54:39.135Z,97403.09
2023-03-04T10:57:17.475Z,97396.06
2023-03-04T10:59:57.275Z,97404.78
2023-03-04T11:02:36.834Z,97397.47
2023-03-04T11:05:19.956Z,97383.44
2023-03-04T11:07:57.237Z,97392.22
2023-03-04T11:10:35.992Z,97393.72
2023-03-04T11:13:14.622Z,97394.06
2023-03-04T11:15:54.867Z,97385.94
2023-03-04T11:18:36.641Z,97376.16
2023-03-04T11:21:09.131Z,97372.72
2023-03-04T11:23:48.851Z,97357.72
2023-03-04T11:26:33.537Z,97373.13
2023-03-04T11:29:10.301Z,97375.47
2023-03-04T11:31:48.385Z,97369.72
2023-03-04T11:34:29.245Z,97355.53
2023-03-04T11:37:05.413Z,97359.81
2023-03-04T11:39:38.613Z,97348.84
2023-03-04T11:42:15.469Z,97340.47
2023-03-04T11:44:44.757Z,97343.88
2023-03-04T11:47:33.246Z,97338.16
2023-03-04T11:50:25.181Z,97321.16
2023-03-04T11:53:16.780Z,97336.59
2023-03-04T11:55:52.220Z,97338.84
2023-03-04T11:58:42.064Z,97324.50
2023-03-04T12:01:17.247Z,97326.25
2023-03-04T12:04:09.556Z,97312.03
2023-03-04T12:06:52.369Z,97321.34
2023-03-04T12:09:40.189Z,97318.75
2023-03-04T12:12:27.302Z,97313.09
2023-03-04T12:15:06.563Z,97302.66
2023-03-04T12:17:56.211Z,97307.09
2023-03-04T12:23:43.361Z,97293.44
2023-03-04T12:26:31.206Z,97260.69
2023-03-04T12:29:15.852Z,97285.34
2023-03-04T12:32:00.205Z,97207.47
2023-03-04T12:34:35.079Z,97268.94
2023-03-04T12:37:35.208Z,97277.25
2023-03-04T12:40:25.164Z,97265.03
2023-03-04T12:43:09.766Z,97241.50
2023-03-04T12:53:13.912Z,97248.47
2023-03-04T12:55:46.347Z,97246.25
2023-03-04T13:01:15.522Z,97241.25
2023-03-04T13:03:54.845Z,97244.56
2023-03-04T13:06:46.089Z,97227.59
2023-03-04T13:09:26.289Z,97223.19
2023-03-04T13:12:05.272Z,97227.63
2023-03-04T13:14:37.043Z,97195.84
2023-03-04T13:17:43.311Z,97221.00
2023-03-04T13:20:35.867Z,97205.66
2023-03-04T13:23:06.216Z,97206.38
2023-03-04T13:25:48.672Z,97197.06
2023-03-04T13:28:31.606Z,97206.44
2023-03-04T13:31:23.329Z,97193.72
2023-03-04T13:34:01.229Z,97175.91
2023-03-04T13:36:56.553Z,97176.84
2023-03-04T13:39:34.265Z,97170.69
2023-03-04T13:42:27.049Z,97146.28
2023-03-04T13:45:03.014Z,97170.84
2023-03-04T13:47:47.685Z,97156.59
2023-03-04T13:50:43.212Z,97147.28
2023-03-04T13:56:28.744Z,97154.00
2023-03-04T13:59:39.065Z,97143.84
2023-03-04T14:02:18.602Z,97145.50
2023-03-04T14:04:49.500Z,97127.81
2023-03-04T14:07:26.583Z,97142.16
2023-03-04T14:09:57.888Z,97121.88
2023-03-04T14:12:29.397Z,97132.94
2023-03-04T14:15:01.145Z,97116.03
2023-03-04T14:17:41.962Z,97126.19
2023-03-04T14:20:27.105Z,97114.34
2023-03-04T14:22:57.445Z,97118.78
2023-03-04T14:25:28.479Z,97110.47
2023-03-04T14:28:12.305Z,97108.84
2023-03-04T14:30:44.428Z,97108.09
2023-03-04T14:33:23.027Z,97100.47
2023-03-04T14:35:54.299Z,97104.88
2023-03-04T14:41:09.493Z,97080.44
2023-03-04T14:43:44.400Z,97089.56
2023-03-04T14:46:18.477Z,97071.00
2023-03-04T14:48:57.871Z,97081.06
2023-03-04T14:51:33.183Z,97084.47
2023-03-04T14:54:02.549Z,97072.00
2023-03-04T14:56:32.520Z,97080.44
2023-03-04T14:59:02.165Z,97072.00
2023-03-04T15:01:34.330Z,97064.38
2023-03-04T15:04:08.313Z,97066.09
2023-03-04T15:06:40.897Z,97050.84
2023-03-04T15:09:21.064Z,97059.94
2023-03-04T15:11:57.585Z,97066.63
2023-03-04T15:14:45.454Z,97056.47
2023-03-04T15:17:31.241Z,97050.50
2023-03-04T15:20:22.847Z,97054.84
2023-03-04T15:23:08.035Z,97046.56
2023-03-04T15:25:37.815Z,97020.41
2023-03-04T15:28:14.411Z,97042.31
2023-03-04T15:30:43.616Z,97032.13
2023-03-04T15:33:21.407Z,97034.69
2023-03-04T15:35:57.713Z,97025.41
2023-03-04T15:38:33.793Z,97031.38
2023-03-04T15:41:03.030Z,97017.97
2023-03-04T15:43:38.864Z,97026.34
2023-03-04T15:46:08.198Z,97013.69
2023-03-04T15:48:37.458Z,97023.81
2023-03-04T15:51:15.733Z,97017.06
2023-03-04T15:53:47.922Z,97000.19
2023-03-04T15:56:24.534Z,97017.78
2023-03-04T15:59:00.628Z,96980.09
2023-03-04T16:01:30.258Z,97003.66
2023-03-04T16:03:59.557Z,97002.81
2023-03-04T16:06:38.114Z,97007.81
2023-03-04T16:09:10.234Z,96998.63
2023-03-04T16:11:45.175Z,96998.53
2023-03-04T16:14:14.876Z,96984.06
2023-03-04T16:16:46.469Z,96989.91
2023-03-04T16:19:15.813Z,96992.31
2023-03-04T16:21:47.398Z,96997.31
2023-03-04T16:24:19.524Z,96987.13
2023-03-04T16:26:49.130Z,96984.59
2023-03-04T16:29:23.488Z,96976.97
2023-03-04T16:31:52.909Z,96983.63
2023-03-04T16:34:22.037Z,96970.94
2023-03-04T16:36:53.148Z,96965.03
2023-03-04T16:39:25.869Z,96968.34
2023-03-04T16:41:55.312Z,96950.75
2023-03-04T16:44:30.128Z,96949.88
2023-03-04T16:49:34.099Z,96959.84
2023-03-04T16:52:05.514Z,96957.34
2023-03-04T16:54:39.953Z,96965.88
2023-03-04T16:57:10.577Z,96948.97
2023-03-04T16:59:39.717Z,96953.25
2023-03-04T17:02:16.120Z,96941.41
2023-03-04T17:04:46.463Z,96949.88
2023-03-04T17:07:23.429Z,96945.59
2023-03-04T17:09:52.649Z,96940.47
2023-03-04T17:12:21.687Z,96944.66
2023-03-04T17:17:33.897Z,96930.16
2023-03-04T17:20:10.849Z,96931.75
2023-03-04T17:22:42.095Z,96923.38
2023-03-04T17:25:12.029Z,96927.56
2023-03-04T17:27:41.710Z,96929.22
2023-03-04T17:30:16.631Z,96922.47
2023-03-04T17:32:45.748Z,96911.53
2023-03-04T17:35:15.131Z,96913.97
2023-03-04T17:37:46.249Z,96925.00
2023-03-04T17:40:15.978Z,96918.19
2023-03-04T17:42:45.470Z,96913.03
2023-03-04T17:45:14.666Z,96918.06
2023-03-04T17:47:43.789Z,96921.44
2023-03-04T17:50:14.526Z,96913.75
2023-03-04T17:52:45.783Z,96915.44
2023-03-04T17:55:15.019Z,96918.00
2023-03-04T17:57:44.045Z,96912.16
2023-03-04T18:00:19.704Z,96913.09
2023-03-04T18:02:51.308Z,96914.94
2023-03-04T18:08:02.961Z,96905.75
2023-03-04T18:10:32.678Z,96915.06
2023-03-04T18:13:03.130Z,96895.84
2023-03-04T18:15:32.402Z,96924.69
2023-03-04T18:20:36.191Z,96914.91
2023-03-04T18:23:07.352Z,96921.78
2023-03-04T18:25:36.706Z,96912.50
2023-03-04T18:28:06.079Z,96874.78
2023-03-04T18:30:40.438Z,96913.34
2023-03-04T18:33:09.641Z,96918.41
2023-03-04T18:35:38.971Z,96914.13
2023-03-04T18:38:15.191Z,96926.13
2023-03-04T18:40:45.331Z,96904.94
2023-03-04T18:43:24.587Z,96900.03
2023-03-04T18:46:02.600Z,96904.41
2023-03-04T18:48:34.576Z,96855.75
2023-03-04T18:51:04.272Z,96906.00
2023-03-04T18:53:35.826Z,96895.63
2023-03-04T18:56:12.379Z,96906.50
2023-03-04T18:58:45.781Z,96908.09
2023-03-04T19:01:16.761Z,96895.38
2023-03-04T19:03:47.584Z,96916.59
2023-03-04T19:06:17.149Z,96914.88
2023-03-04T19:08:55.406Z,96914.06
2023-03-04T19:11:24.674Z,96896.34
2023-03-04T19:13:54.095Z,96906.34
2023-03-04T19:16:28.789Z,96909.78
2023-03-04T19:18:57.974Z,96910.72
2023-03-04T19:21:35.051Z,96908.28
2023-03-04T19:24:06.644Z,96900.63
2023-03-04T19:26:40.917Z,96906.53
2023-03-04T19:29:10.127Z,96906.50
2023-03-04T19:31:41.657Z,96913.34
2023-03-04T19:34:16.862Z,96909.88
2023-03-04T19:36:46.036Z,96892.19
2023-03-04T19:39:18.175Z,96902.34
2023-03-04T19:41:47.772Z,96911.75
2023-03-04T19:44:16.937Z,96909.25
2023-03-04T19:46:51.293Z,96909.25
2023-03-04T19:49:20.464Z,96899.03
2023-03-04T19:51:49.667Z,96909.25
2023-03-04T19:54:20.771Z,96904.09
2023-03-04T19:56:50.140Z,96905.69
2023-03-04T19:59:24.253Z,96887.13
2023-03-04T20:02:00.751Z,96886.31
2023-03-04T20:04:30.303Z,96855.16
2023-03-04T20:06:59.419Z,96887.22
2023-03-04T20:09:30.533Z,96892.34
2023-03-04T20:11:59.690Z,96911.00
2023-03-04T20:14:29.130Z,96906.81
2023-03-04T20:17:06.633Z,96896.69
2023-03-04T20:19:36.579Z,96886.50
2023-03-04T20:22:06.645Z,96888.41
2023-03-04T20:24:38.101Z,96901.78
2023-03-04T20:27:07.223Z,96888.31
2023-03-04T20:29:36.342Z,96888.28
2023-03-04T20:32:06.319Z,96888.28
2023-03-04T20:34:36.402Z,96893.44
2023-03-04T20:37:05.631Z,96903.69
2023-03-04T20:39:34.729Z,96890.97
2023-03-04T20:42:06.281Z,96859.22
2023-03-04T20:44:35.848Z,96876.03
2023-03-04T20:47:05.305Z,96859.19
2023-03-04T20:49:34.738Z,96863.31
2023-03-04T20:52:06.004Z,96868.31
2023-03-04T20:54:36.032Z,96896.97
2023-03-04T20:57:08.384Z,96898.81
2023-03-04T20:59:43.138Z,96900.53
2023-03-04T21:04:57.347Z,96901.31
2023-03-04T21:07:26.597Z,96879.56
2023-03-04T21:09:56.604Z,96895.50
2023-03-04T21:12:27.751Z,96898.91
2023-03-04T21:15:00.190Z,96885.31
2023-03-04T21:17:29.484Z,96892.13
2023-03-04T21:19:58.647Z,96894.69
2023-03-04T21:22:28.633Z,96886.41
2023-03-04T21:25:02.874Z,96892.25
2023-03-04T21:27:38.244Z,96898.13
2023-03-04T21:30:14.019Z,96895.59
2023-03-04T21:32:43.579Z,96886.38
2023-03-04T21:35:16.024Z,96899.06
2023-03-04T21:37:45.350Z,96878.72
2023-03-04T21:40:15.455Z,96884.81
2023-03-04T21:42:51.632Z,96901.59
2023-03-04T21:45:21.361Z,96889.84
2023-03-04T21:47:51.053Z,96892.28
2023-03-04T21:50:20.587Z,96881.47
2023-03-04T21:52:49.957Z,96890.63
2023-03-04T21:55:19.245Z,96879.66
2023-03-04T21:57:50.326Z,96885.66
2023-03-04T22:00:21.402Z,96844.34
2023-03-04T22:02:50.895Z,96877.94
2023-03-04T22:05:20.576Z,96888.94
2023-03-04T22:07:49.878Z,96883.13
2023-03-04T22:10:19.879Z,96890.75
2023-03-04T22:12:51.108Z,96884.75
2023-03-04T22:15:20.434Z,96877.13
2023-03-04T22:17:49.525Z,96882.25
2023-03-04T22:20:19.862Z,96888.13
2023-03-04T22:22:49.107Z,96887.34
2023-03-04T22:25:18.384Z,96894.91
2023-03-04T22:30:30.393Z,96883.06
2023-03-04T22:32:59.906Z,96904.22
2023-03-04T22:35:35.880Z,96892.44
2023-03-04T22:38:05.044Z,96892.44
2023-03-04T22:40:35.194Z,96895.91
2023-03-04T22:43:06.615Z,96890.69
2023-03-04T22:45:41.814Z,96897.53
2023-03-04T22:48:11.030Z,96897.50
2023-03-04T22:50:40.232Z,96896.66
2023-03-04T22:53:09.687Z,96896.66
2023-03-04T22:55:38.925Z,96887.47
2023-03-04T22:58:09.936Z,96864.59
2023-03-04T23:00:44.177Z,96868.78
2023-03-04T23:03:13.379Z,96894.97
2023-03-04T23:05:42.575Z,96894.19
2023-03-04T23:08:11.884Z,96887.44
2023-03-04T23:10:43.566Z,96894.22
2023-03-04T23:13:15.017Z,96886.59
2023-03-04T23:15:44.231Z,96889.13
2023-03-04T23:18:13.439Z,96888.38
2023-03-04T23:23:18.996Z,96885.00
2023-03-04T23:25:51.478Z,96892.63
2023-03-04T23:28:23.255Z,96874.88
2023-03-04T23:30:57.414Z,96869.75
2023-03-04T23:33:26.767Z,96873.22
2023-03-04T23:35:55.895Z,96877.47
2023-03-04T23:38:25.212Z,96883.38
2023-03-04T23:43:31.479Z,96885.06
2023-03-04T23:46:00.902Z,96877.41
2023-03-04T23:48:30.102Z,96874.91
2023-03-04T23:51:04.463Z,96870.84
2023-03-04T23:53:39.892Z,96880.03
2023-03-04T23:56:11.124Z,96885.94
2023-03-04T23:58:43.004Z,96887.53
